createdAt,value
2019-03-15T00:05:24.374Z,62.00
2019-03-15T00:18:47.170Z,61.50
2019-03-15T00:45:45.055Z,60.80
2019-03-15T00:58:52.421Z,60.30
2019-03-15T01:11:59.774Z,59.70
2019-03-15T01:25:07.072Z,59.10
2019-03-15T01:51:32.969Z,58.30
2019-03-15T02:04:40.276Z,57.80
2019-03-15T02:17:47.553Z,57.40
2019-03-15T02:30:54.833Z,56.70
2019-03-15T02:44:02.118Z,56.40
2019-03-15T02:57:26.290Z,55.90
2019-03-15T03:10:49.425Z,55.50
2019-03-15T03:24:11.904Z,55.20
2019-03-15T03:37:34.706Z,54.90
2019-03-15T04:03:59.198Z,54.40
2019-03-15T04:17:06.607Z,54.30
2019-03-15T04:30:14.009Z,54.10
2019-03-15T04:43:21.270Z,53.80
2019-03-15T04:56:28.555Z,53.70
2019-03-15T05:09:52.506Z,53.50
2019-03-15T05:23:15.463Z,53.30
2019-03-15T05:36:38.152Z,53.10
2019-03-15T05:50:01.049Z,53.00
2019-03-15T06:03:23.868Z,53.50
2019-03-15T06:16:46.700Z,52.80
2019-03-15T06:30:09.416Z,52.60
2019-03-15T06:43:32.241Z,52.50
2019-03-15T06:56:55.028Z,52.30
2019-03-15T07:10:17.880Z,46.70
2019-03-15T07:23:40.656Z,49.90
2019-03-15T08:03:11.673Z,54.10
2019-03-15T08:16:18.919Z,53.50
2019-03-15T08:29:26.161Z,51.30
2019-03-15T08:42:34.617Z,51.80
2019-03-15T08:55:40.858Z,52.50
2019-03-15T09:09:04.892Z,53.30
2019-03-15T09:22:27.844Z,53.50
2019-03-15T09:35:50.527Z,53.90
2019-03-15T09:49:13.474Z,53.70
2019-03-15T10:02:36.247Z,53.60
2019-03-15T10:15:59.115Z,53.40
2019-03-15T10:29:21.833Z,53.30
2019-03-15T10:55:58.966Z,53.60
2019-03-15T11:21:59.219Z,58.10
2019-03-15T11:35:06.627Z,58.00
2019-03-15T11:48:14.039Z,57.90
2019-03-15T12:01:21.425Z,57.60
2019-03-15T12:14:40.206Z,56.60
2019-03-15T12:27:52.587Z,57.30
2019-03-15T12:41:15.270Z,57.00
2019-03-15T12:54:38.061Z,56.30
2019-03-15T13:08:00.855Z,56.60
2019-03-15T13:34:25.475Z,56.60
2019-03-15T13:47:32.865Z,57.00
2019-03-15T14:00:40.268Z,56.20
2019-03-15T14:13:47.714Z,55.40
2019-03-15T14:26:55.092Z,55.20
2019-03-15T14:40:18.678Z,55.10
2019-03-15T15:06:43.163Z,54.90
2019-03-15T15:19:50.444Z,55.10
2019-03-15T15:32:57.701Z,55.00
2019-03-15T15:46:05.010Z,54.80
2019-03-15T15:59:12.285Z,54.70
2019-03-15T16:12:36.600Z,54.80
2019-03-15T16:25:59.299Z,54.70
2019-03-15T16:39:22.071Z,54.90
2019-03-15T17:05:46.591Z,59.10
2019-03-15T17:18:53.897Z,58.50
2019-03-15T17:32:01.276Z,58.60
2019-03-15T17:45:08.586Z,58.50
2019-03-15T17:58:15.872Z,58.30
2019-03-15T18:11:39.949Z,58.40
2019-03-15T18:25:02.722Z,57.80
2019-03-15T18:38:25.588Z,56.30
2019-03-15T18:51:48.333Z,56.20
2019-03-15T19:18:46.190Z,54.60
2019-03-15T19:31:53.587Z,42.00
2019-03-15T19:45:00.936Z,43.70
2019-03-15T19:58:08.213Z,41.50
2019-03-15T20:11:32.595Z,46.80
2019-03-15T20:24:55.284Z,48.70
2019-03-15T20:38:18.231Z,49.70
2019-03-15T20:51:41.101Z,51.20
2019-03-15T21:05:03.755Z,51.50
2019-03-15T21:18:26.699Z,52.10
2019-03-15T21:31:49.352Z,53.40
2019-03-15T21:45:12.342Z,53.90
2019-03-15T21:58:35.034Z,54.30
2019-03-15T22:11:57.832Z,54.50
2019-03-15T22:25:20.635Z,55.40
2019-03-15T22:38:43.451Z,54.70
2019-03-15T22:52:06.269Z,54.80
2019-03-15T23:05:29.090Z,54.80
2019-03-15T23:18:51.892Z,54.90
2019-03-15T23:32:14.726Z,54.70
2019-03-15T23:45:37.527Z,54.40
2019-03-15T23:59:00.436Z,54.20
